Time;durP1;ratioP1;P1;durP2;ratioP2;P2;SDS_P1;SDS_P2;PMS_P1;PMS_P2;Temp;Humidity;BMP_temperature;BMP_pressure;BME280_temperature;BME280_humidity;BME280_pressure;Samples;Min_cycle;Max_cycle;Signal;HPM_P1;HPM_P2
2022/09/24 00:02:03;;;;;;;38.25;26.73;;;13.50;99.90;;;;;;4959971;28;20062;-65
2022/09/24 00:04:30;;;;;;;39.03;29.77;;;13.50;99.90;;;;;;4976439;28;20137;-65
2022/09/24 00:06:57;;;;;;;37.03;27.40;;;13.50;99.90;;;;;;4959047;28;20501;-65
2022/09/24 00:09:24;;;;;;;38.55;28.35;;;13.50;99.90;;;;;;4959721;28;20055;-64
2022/09/24 00:11:52;;;;;;;41.55;29.55;;;13.50;99.90;;;;;;4976070;28;20055;-65
2022/09/24 00:14:19;;;;;;;38.53;28.98;;;13.50;99.90;;;;;;4959538;28;20058;-65
2022/09/24 00:16:46;;;;;;;40.53;29.20;;;13.50;99.90;;;;;;4976849;28;20058;-65
2022/09/24 00:19:14;;;;;;;40.13;29.48;;;13.50;99.90;;;;;;4975845;28;20101;-65
2022/09/24 00:21:42;;;;;;;39.92;29.42;;;13.50;99.90;;;;;;4959576;28;20109;-65
2022/09/24 00:26:48;;;;;;;38.60;28.70;;;13.50;99.90;;;;;;4976074;28;20047;-65
2022/09/24 00:27:01;;;;;;;37.95;30.30;;;13.50;99.90;;;;;;4958394;28;20061;-65
2022/09/24 00:29:30;;;;;;;38.80;30.48;;;13.50;99.90;;;;;;4959231;28;20379;-64
2022/09/24 00:31:56;;;;;;;39.45;30.60;;;13.50;99.90;;;;;;4959031;28;20057;-65
2022/09/24 00:34:23;;;;;;;43.50;32.92;;;13.50;99.90;;;;;;4975668;28;20537;-65
2022/09/24 00:36:51;;;;;;;45.20;33.75;;;13.50;99.90;;;;;;4959015;28;20330;-64
2022/09/24 00:39:19;;;;;;;45.95;33.35;;;13.50;99.90;;;;;;4975544;28;20051;-64
2022/09/24 00:41:47;;;;;;;51.65;36.53;;;13.60;99.90;;;;;;4958624;28;20109;-64
2022/09/24 00:44:52;;;;;;;45.35;33.60;;;13.60;99.90;;;;;;4957999;28;20059;-65
2022/09/24 00:47:33;;;;;;;45.72;34.85;;;13.60;99.90;;;;;;4975592;28;20055;-64
2022/09/24 00:50:06;;;;;;;;;;;13.60;99.90;;;;;;4976745;28;20106;-64
2022/09/24 00:52:35;;;;;;;48.55;35.17;;;13.60;99.90;;;;;;4958808;28;20456;-64
2022/09/24 00:55:02;;;;;;;48.90;33.80;;;13.60;99.90;;;;;;4975208;28;20379;-65
2022/09/24 00:57:29;;;;;;;47.15;35.38;;;13.60;99.90;;;;;;4958929;28;20062;-65
2022/09/24 00:59:58;;;;;;;48.78;37.17;;;13.60;99.90;;;;;;4976151;28;20196;-64
2022/09/24 01:02:25;;;;;;;51.60;36.72;;;13.60;99.90;;;;;;4954511;29;20559;-65
2022/09/24 01:04:53;;;;;;;47.17;36.25;;;13.60;99.90;;;;;;4939701;29;20566;-64
2022/09/24 01:07:20;;;;;;;51.63;37.20;;;13.70;99.90;;;;;;4959122;28;20574;-64
2022/09/24 01:09:47;;;;;;;50.90;36.20;;;13.70;99.90;;;;;;4975049;28;20101;-64
2022/09/24 01:12:20;;;;;;;54.33;36.88;;;13.70;99.90;;;;;;4958555;28;20439;-64
2022/09/24 01:14:58;;;;;;;52.60;36.95;;;13.70;99.90;;;;;;4975319;28;20494;-64
2022/09/24 01:17:35;;;;;;;51.05;37.47;;;13.70;99.90;;;;;;4957919;28;20513;-64
2022/09/24 01:20:45;;;;;;;57.63;38.55;;;13.70;99.90;;;;;;4975159;28;20101;-64
2022/09/24 01:23:23;;;;;;;55.57;39.93;;;13.70;99.90;;;;;;4957354;28;20109;-64
2022/09/24 01:26:01;;;;;;;52.72;38.97;;;13.70;99.90;;;;;;4975382;28;20455;-64
2022/09/24 01:28:41;;;;;;;51.67;39.78;;;13.70;99.90;;;;;;4957670;28;20470;-64
2022/09/24 01:31:14;;;;;;;51.95;38.75;;;13.70;99.90;;;;;;4974576;28;20047;-64
2022/09/24 01:33:44;;;;;;;56.78;41.97;;;13.80;99.90;;;;;;4957875;28;20095;-64
2022/09/24 01:36:13;;;;;;;52.20;39.13;;;13.80;99.90;;;;;;4974182;28;20375;-64
2022/09/24 01:38:43;;;;;;;56.92;40.88;;;13.80;99.90;;;;;;4975070;28;20054;-63
2022/09/24 01:41:12;;;;;;;55.55;38.35;;;13.80;99.90;;;;;;4975201;28;20109;-64
2022/09/24 01:43:39;;;;;;;53.85;40.38;;;13.80;99.90;;;;;;4974279;28;20106;-64
2022/09/24 01:46:07;;;;;;;54.28;41.05;;;13.80;99.90;;;;;;4957327;28;20066;-64
2022/09/24 01:48:36;;;;;;;59.25;43.03;;;13.80;99.90;;;;;;4957386;28;20051;-64
2022/09/24 01:51:10;;;;;;;56.20;41.33;;;13.70;99.90;;;;;;4974162;28;20131;-64
2022/09/24 01:53:42;;;;;;;56.00;41.22;;;13.80;99.90;;;;;;4974628;28;20174;-64
2022/09/24 01:56:15;;;;;;;58.72;41.63;;;13.80;99.90;;;;;;4974600;28;20049;-64
2022/09/24 01:58:47;;;;;;;59.22;42.47;;;13.80;99.90;;;;;;4956942;28;20060;-64
2022/09/24 02:01:19;;;;;;;54.05;40.05;;;13.70;99.90;;;;;;4957279;28;20050;-64
2022/09/24 02:03:51;;;;;;;60.47;42.65;;;13.80;99.90;;;;;;4973898;28;20082;-65
2022/09/24 02:06:22;;;;;;;54.70;41.40;;;13.80;99.90;;;;;;4956967;28;20117;-65
2022/09/24 02:08:49;;;;;;;60.58;43.38;;;13.80;99.90;;;;;;4956877;28;20122;-64
2022/09/24 02:11:17;;;;;;;55.72;40.90;;;13.80;99.90;;;;;;4957238;28;20055;-64
2022/09/24 02:13:50;;;;;;;67.72;47.13;;;13.70;99.90;;;;;;4974268;28;20061;-64
2022/09/24 02:16:21;;;;;;;75.32;52.30;;;13.80;99.90;;;;;;4957233;28;20485;-64
2022/09/24 02:18:54;;;;;;;59.25;41.47;;;13.80;99.90;;;;;;4973894;28;20047;-65
2022/09/24 02:21:23;;;;;;;50.97;39.47;;;13.80;99.90;;;;;;4957540;28;20499;-63
2022/09/24 02:23:55;;;;;;;65.75;46.03;;;13.80;99.90;;;;;;4974196;28;20462;-64
2022/09/24 02:26:22;;;;;;;68.15;44.00;;;13.80;99.90;;;;;;4956747;28;20054;-65
2022/09/24 02:28:49;;;;;;;63.15;42.15;;;13.70;99.90;;;;;;4974455;28;20047;-64
2022/09/24 02:31:20;;;;;;;70.70;47.35;;;13.70;99.90;;;;;;4974364;28;20051;-64
2022/09/24 02:36:36;;;;;;;63.63;47.30;;;13.70;99.90;;;;;;4956953;28;20047;-64
2022/09/24 02:39:03;;;;;;;59.03;41.67;;;13.70;99.90;;;;;;4974215;28;20058;-65
2022/09/24 02:41:31;;;;;;;55.85;40.40;;;13.70;99.90;;;;;;4973724;28;20055;-65
2022/09/24 02:43:58;;;;;;;46.53;35.75;;;13.70;99.90;;;;;;4956865;28;20062;-65
2022/09/24 02:46:25;;;;;;;44.75;35.60;;;13.70;99.90;;;;;;4973975;28;20486;-64
2022/09/24 02:48:54;;;;;;;52.33;40.53;;;13.60;99.90;;;;;;4956607;28;20106;-64
2022/09/24 02:51:21;;;;;;;45.47;34.25;;;13.70;99.90;;;;;;4974163;28;20059;-65
2022/09/24 02:53:48;;;;;;;50.42;37.85;;;13.70;99.90;;;;;;4952786;29;20094;-65
2022/09/24 02:56:15;;;;;;;43.80;33.92;;;13.70;99.90;;;;;;4937298;29;20051;-65
2022/09/24 02:58:42;;;;;;;44.40;34.70;;;13.70;99.90;;;;;;4954806;29;20051;-64
2022/09/24 03:01:09;;;;;;;38.90;30.77;;;13.70;99.90;;;;;;4953869;29;20051;-64
2022/09/24 03:03:35;;;;;;;39.33;31.13;;;13.70;99.90;;;;;;4945730;28;20054;-64
2022/09/24 03:06:05;;;;;;;44.80;34.60;;;13.70;99.90;;;;;;4973806;28;20046;-64
2022/09/24 03:08:32;;;;;;;42.05;32.22;;;13.70;99.90;;;;;;4959618;28;20201;-65
2022/09/24 03:10:59;;;;;;;35.10;27.23;;;13.70;99.90;;;;;;4978292;28;20458;-65
2022/09/24 03:13:26;;;;;;;34.88;26.42;;;13.70;99.90;;;;;;4977299;28;20518;-64
2022/09/24 03:15:53;;;;;;;45.33;30.90;;;13.70;99.90;;;;;;4977607;28;20149;-65
2022/09/24 03:18:20;;;;;;;41.70;31.77;;;13.70;99.90;;;;;;4978057;28;20105;-64
2022/09/24 03:20:55;;;;;;;66.13;42.63;;;13.70;99.90;;;;;;4977560;28;20054;-65
2022/09/24 03:23:23;;;;;;;41.05;32.00;;;13.70;99.90;;;;;;4959973;28;20142;-65
2022/09/24 03:25:50;;;;;;;54.22;37.58;;;13.80;99.90;;;;;;4960733;28;20187;-64
2022/09/24 03:28:17;;;;;;;56.65;41.55;;;13.80;99.90;;;;;;4960168;28;20089;-64
2022/09/24 03:30:59;;;;;;;47.15;36.08;;;13.80;99.90;;;;;;4959895;28;20055;-64
2022/09/24 03:33:26;;;;;;;52.10;36.17;;;13.80;99.90;;;;;;4960347;28;20062;-64
2022/09/24 03:35:56;;;;;;;58.45;38.95;;;13.80;99.90;;;;;;4976539;28;20050;-66
2022/09/24 03:38:24;;;;;;;45.88;34.67;;;13.80;99.90;;;;;;4960851;28;20168;-65
2022/09/24 03:40:52;;;;;;;58.13;40.95;;;13.80;99.90;;;;;;4977318;28;20050;-64
2022/09/24 03:43:19;;;;;;;51.65;38.60;;;13.80;99.90;;;;;;4976677;28;20050;-64
2022/09/24 03:45:45;;;;;;;53.65;38.45;;;13.90;99.90;;;;;;4977388;28;20550;-65
2022/09/24 03:48:12;;;;;;;59.47;39.03;;;13.90;99.90;;;;;;4977353;28;20109;-65
2022/09/24 03:50:39;;;;;;;41.08;31.33;;;13.90;99.90;;;;;;4959413;28;20125;-65
2022/09/24 03:53:06;;;;;;;42.30;32.53;;;13.90;99.90;;;;;;4960124;28;20058;-65
2022/09/24 03:55:35;;;;;;;47.85;33.65;;;13.90;99.90;;;;;;4976922;28;20054;-65
2022/09/24 03:58:02;;;;;;;53.33;35.22;;;13.90;99.90;;;;;;4976569;28;20055;-66
2022/09/24 04:00:29;;;;;;;44.15;32.30;;;13.90;99.90;;;;;;4977099;28;20450;-65
2022/09/24 04:02:56;;;;;;;47.78;34.03;;;13.90;99.90;;;;;;4959681;28;20058;-65
2022/09/24 04:05:23;;;;;;;42.50;30.02;;;13.90;99.90;;;;;;4959319;28;20059;-66
2022/09/24 04:07:49;;;;;;;44.10;31.02;;;13.90;99.90;;;;;;4959507;28;20134;-65
2022/09/24 04:10:16;;;;;;;42.08;30.17;;;14.00;99.90;;;;;;4976433;28;20105;-65
2022/09/24 04:12:45;;;;;;;38.58;29.42;;;13.90;99.90;;;;;;4976058;28;20524;-64
2022/09/24 04:15:12;;;;;;;42.90;29.23;;;13.90;99.90;;;;;;4959792;28;20117;-64
2022/09/24 04:17:39;;;;;;;35.58;26.15;;;13.90;99.90;;;;;;4975792;28;20185;-65
2022/09/24 04:20:07;;;;;;;40.53;26.42;;;14.00;99.90;;;;;;4958664;28;20129;-65
2022/09/24 04:22:34;;;;;;;37.08;25.13;;;13.90;99.90;;;;;;4976715;28;20050;-65
2022/09/24 04:25:02;;;;;;;26.17;17.70;;;13.90;99.90;;;;;;4955320;29;20055;-65
2022/09/24 04:27:29;;;;;;;26.35;15.15;;;13.90;99.90;;;;;;4957265;29;20047;-64
2022/09/24 04:29:58;;;;;;;17.83;10.40;;;13.90;99.90;;;;;;4957253;29;20047;-64
2022/09/24 04:32:24;;;;;;;14.90;6.72;;;13.90;99.90;;;;;;4956355;29;20125;-65
2022/09/24 04:34:51;;;;;;;20.58;5.30;;;13.90;99.90;;;;;;4940097;29;20106;-65
2022/09/24 04:37:18;;;;;;;8.40;3.17;;;13.90;99.90;;;;;;4967303;28;20148;-66
2022/09/24 04:39:45;;;;;;;12.00;2.75;;;13.90;99.90;;;;;;4957189;28;20054;-64
2022/09/24 04:42:17;;;;;;;11.40;3.30;;;13.80;99.90;;;;;;4974886;28;20499;-65
2022/09/24 04:44:46;;;;;;;11.93;2.85;;;13.80;99.90;;;;;;4975272;28;20061;-65
2022/09/24 04:47:15;;;;;;;10.77;2.63;;;13.80;99.90;;;;;;4958336;28;20058;-65
2022/09/24 04:49:44;;;;;;;14.63;3.33;;;13.80;99.90;;;;;;4976199;28;20109;-65
2022/09/24 04:52:13;;;;;;;11.35;2.95;;;13.80;99.90;;;;;;4975733;28;20054;-66
2022/09/24 04:54:41;;;;;;;11.73;3.00;;;13.70;99.90;;;;;;4975414;28;20054;-66
2022/09/24 04:57:08;;;;;;;10.65;2.20;;;13.70;99.90;;;;;;4958586;28;20506;-67
2022/09/24 04:59:35;;;;;;;13.63;3.25;;;13.60;99.90;;;;;;4958557;28;20062;-64
2022/09/24 05:02:02;;;;;;;19.50;3.00;;;13.60;99.90;;;;;;4975321;28;20055;-63
2022/09/24 05:04:30;;;;;;;10.70;3.58;;;13.60;99.90;;;;;;4975452;28;20054;-64
2022/09/24 05:06:57;;;;;;;10.05;3.13;;;13.60;99.90;;;;;;4975430;28;20051;-65
2022/09/24 05:09:24;;;;;;;21.67;4.10;;;13.50;99.90;;;;;;4975153;28;20051;-65
2022/09/24 05:11:51;;;;;;;12.32;2.97;;;13.50;99.90;;;;;;4975655;28;20109;-64
2022/09/24 05:14:18;;;;;;;8.30;2.42;;;13.50;99.90;;;;;;4974698;28;20473;-65
2022/09/24 05:16:45;;;;;;;15.55;2.78;;;13.50;99.90;;;;;;4975622;28;20043;-64
2022/09/24 05:19:11;;;;;;;14.32;2.92;;;13.50;99.90;;;;;;4958585;28;20106;-64
2022/09/24 05:21:40;;;;;;;12.05;2.75;;;13.50;99.90;;;;;;4974614;28;20042;-64
2022/09/24 05:24:07;;;;;;;9.75;2.28;;;13.50;99.90;;;;;;4975217;28;20565;-63
2022/09/24 05:29:18;;;;;;;19.70;2.83;;;13.50;99.90;;;;;;4956832;28;20066;-63
2022/09/24 05:31:45;;;;;;;9.57;2.50;;;13.50;99.90;;;;;;4957968;28;20476;-63
2022/09/24 05:34:13;;;;;;;7.07;1.85;;;13.50;99.90;;;;;;4974707;28;20046;-63
2022/09/24 05:36:42;;;;;;;6.25;2.00;;;13.50;99.90;;;;;;4974503;28;20463;-64
2022/09/24 05:39:10;;;;;;;9.00;1.88;;;13.50;99.90;;;;;;4975299;28;20054;-63
2022/09/24 05:41:37;;;;;;;10.82;2.38;;;13.50;99.90;;;;;;4957839;28;20058;-65
2022/09/24 05:44:04;;;;;;;8.35;2.58;;;13.50;99.90;;;;;;4957070;28;20121;-64
2022/09/24 05:46:31;;;;;;;6.07;1.83;;;13.50;99.90;;;;;;4958008;28;20051;-65
2022/09/24 05:48:58;;;;;;;9.27;2.58;;;13.50;99.90;;;;;;4974599;28;20511;-65
2022/09/24 05:51:25;;;;;;;7.53;2.20;;;13.50;99.90;;;;;;4957365;28;20054;-65
2022/09/24 05:53:53;;;;;;;11.10;2.13;;;13.50;99.90;;;;;;4957931;28;20070;-63
2022/09/24 05:56:20;;;;;;;6.65;2.17;;;13.60;99.90;;;;;;4974609;28;20117;-65
2022/09/24 05:58:49;;;;;;;11.52;2.70;;;13.60;99.90;;;;;;4974654;28;20054;-65
2022/09/24 06:01:15;;;;;;;10.30;2.72;;;13.60;99.90;;;;;;4957483;28;20055;-65
2022/09/24 06:03:42;;;;;;;7.85;2.30;;;13.60;99.90;;;;;;4956756;28;20046;-65
2022/09/24 06:06:09;;;;;;;7.90;2.72;;;13.60;99.90;;;;;;4961298;28;20047;-65
2022/09/24 06:08:36;;;;;;;10.38;2.58;;;13.70;99.90;;;;;;4952970;28;20415;-65
2022/09/24 06:11:07;;;;;;;12.07;2.47;;;13.70;99.90;;;;;;4946879;28;20054;-65
2022/09/24 06:13:34;;;;;;;11.95;2.78;;;13.70;99.90;;;;;;4952684;28;20495;-65
2022/09/24 06:16:02;;;;;;;10.05;2.47;;;13.70;99.90;;;;;;4950297;28;20048;-65
2022/09/24 06:18:30;;;;;;;10.23;2.17;;;13.70;99.90;;;;;;4968790;28;20042;-65
2022/09/24 06:21:01;;;;;;;10.60;2.58;;;13.70;99.90;;;;;;4967086;28;20047;-65
2022/09/24 06:23:29;;;;;;;11.18;3.20;;;13.80;99.90;;;;;;4949408;28;20054;-66
2022/09/24 06:25:56;;;;;;;13.15;2.70;;;13.80;99.90;;;;;;4948735;28;20051;-64
2022/09/24 06:28:25;;;;;;;12.20;2.80;;;13.80;99.90;;;;;;4968595;28;20499;-65
2022/09/24 06:30:52;;;;;;;10.20;2.67;;;13.80;99.90;;;;;;4951450;28;20051;-65
2022/09/24 06:33:20;;;;;;;9.80;2.60;;;13.90;99.90;;;;;;4948700;28;20063;-65
2022/09/24 06:35:48;;;;;;;21.38;3.17;;;14.00;99.90;;;;;;4950137;28;20101;-64
2022/09/24 06:38:16;;;;;;;17.30;3.58;;;14.00;99.90;;;;;;4968114;28;20486;-64
2022/09/24 06:40:45;;;;;;;9.45;2.63;;;13.90;99.90;;;;;;4969644;28;20054;-64
2022/09/24 06:43:13;;;;;;;14.90;3.33;;;14.00;99.90;;;;;;4965175;28;20143;-64
2022/09/24 06:45:42;;;;;;;15.73;3.20;;;14.00;99.90;;;;;;4960593;28;20047;-64
2022/09/24 06:48:11;;;;;;;10.13;2.35;;;14.00;99.90;;;;;;4965135;28;20554;-64
2022/09/24 06:50:40;;;;;;;16.50;2.97;;;14.00;99.90;;;;;;4954160;28;20490;-65
2022/09/24 06:53:09;;;;;;;14.40;3.30;;;14.00;99.90;;;;;;4967852;28;20047;-65
2022/09/24 06:55:37;;;;;;;11.93;3.63;;;14.00;99.90;;;;;;4965879;28;20065;-64
2022/09/24 06:58:05;;;;;;;14.88;3.15;;;14.00;99.90;;;;;;4951504;28;20054;-64
2022/09/24 07:00:32;;;;;;;11.90;2.58;;;14.00;99.90;;;;;;4965549;28;20058;-65
2022/09/24 07:03:01;;;;;;;8.98;2.63;;;14.10;99.90;;;;;;4964359;28;20047;-65
2022/09/24 07:05:28;;;;;;;10.85;2.83;;;14.10;99.90;;;;;;4963836;28;20050;-66
2022/09/24 07:07:55;;;;;;;12.95;3.17;;;14.20;99.90;;;;;;4946310;28;20058;-66
2022/09/24 07:10:23;;;;;;;11.48;3.45;;;14.20;99.90;;;;;;4971192;28;20059;-65
2022/09/24 07:12:50;;;;;;;12.48;2.97;;;14.20;99.90;;;;;;4966613;28;20058;-64
2022/09/24 07:15:17;;;;;;;17.02;3.15;;;14.20;99.90;;;;;;4963596;28;20053;-64
2022/09/24 07:17:44;;;;;;;12.90;2.78;;;14.30;99.90;;;;;;4964963;28;20050;-64
2022/09/24 07:20:12;;;;;;;9.52;2.70;;;14.30;99.90;;;;;;4963704;28;20058;-65
2022/09/24 07:22:41;;;;;;;10.02;2.38;;;14.40;99.90;;;;;;4967331;28;20079;-64
2022/09/24 07:25:10;;;;;;;12.07;2.42;;;14.60;99.90;;;;;;4968405;28;20090;-65
2022/09/24 07:27:38;;;;;;;6.70;2.30;;;14.70;99.90;;;;;;4948947;28;20055;-65
2022/09/24 07:30:07;;;;;;;13.70;2.75;;;14.80;99.90;;;;;;4953275;28;20413;-65
2022/09/24 07:32:34;;;;;;;10.85;2.30;;;14.90;99.90;;;;;;4966127;28;20047;-65
2022/09/24 07:35:01;;;;;;;11.52;3.00;;;14.80;99.90;;;;;;4947364;28;20056;-65
2022/09/24 07:37:31;;;;;;;15.70;3.03;;;14.80;99.90;;;;;;4966355;28;20043;-65
2022/09/24 07:39:58;;;;;;;11.65;3.28;;;14.80;99.90;;;;;;4947505;28;20054;-65
2022/09/24 07:42:26;;;;;;;11.27;3.00;;;14.80;99.90;;;;;;4942169;28;20058;-64
2022/09/24 07:44:55;;;;;;;11.27;2.80;;;14.80;99.90;;;;;;4967033;28;20051;-64
2022/09/24 07:47:22;;;;;;;9.68;2.70;;;14.80;99.90;;;;;;4966130;28;20485;-64
2022/09/24 07:49:49;;;;;;;13.23;3.20;;;14.80;99.90;;;;;;4965403;28;20058;-65
2022/09/24 07:52:17;;;;;;;12.27;2.75;;;14.80;99.90;;;;;;4967469;28;20051;-65
2022/09/24 07:54:45;;;;;;;12.23;2.58;;;14.80;99.90;;;;;;4967086;28;20061;-65
2022/09/24 07:57:13;;;;;;;10.13;2.58;;;14.80;99.90;;;;;;4968670;28;20051;-65
2022/09/24 07:59:40;;;;;;;8.50;2.60;;;14.80;99.90;;;;;;4968367;28;20529;-64
2022/09/24 08:02:14;;;;;;;11.55;2.38;;;14.80;99.90;;;;;;4950913;28;20055;-65
2022/09/24 08:04:41;;;;;;;9.90;2.63;;;14.80;99.90;;;;;;4973973;28;20077;-65
2022/09/24 08:07:07;;;;;;;6.03;1.80;;;14.80;99.90;;;;;;4970660;28;20058;-65
2022/09/24 08:09:34;;;;;;;10.65;2.67;;;14.70;99.90;;;;;;4969022;28;20047;-65
2022/09/24 08:12:03;;;;;;;11.93;3.13;;;14.80;99.90;;;;;;4966250;28;20058;-64
2022/09/24 08:14:30;;;;;;;13.55;2.13;;;14.80;99.90;;;;;;4956801;28;20055;-65
2022/09/24 08:16:57;;;;;;;10.13;2.67;;;14.80;99.90;;;;;;4952501;28;20054;-64
2022/09/24 08:19:26;;;;;;;11.10;2.58;;;14.90;99.90;;;;;;4968776;28;20042;-65
2022/09/24 08:21:53;;;;;;;10.50;2.92;;;14.90;99.90;;;;;;4952201;28;20050;-65
2022/09/24 08:24:20;;;;;;;10.40;2.67;;;15.00;99.90;;;;;;4968398;28;20574;-65
2022/09/24 08:26:47;;;;;;;8.40;2.15;;;15.10;99.90;;;;;;4950765;28;20134;-66
2022/09/24 08:29:15;;;;;;;14.80;2.25;;;15.30;99.90;;;;;;4969289;28;20440;-65
2022/09/24 08:31:42;;;;;;;11.43;2.53;;;15.40;99.90;;;;;;4968715;28;20130;-64
2022/09/24 08:34:09;;;;;;;13.98;2.35;;;15.50;99.90;;;;;;4969219;28;20047;-65
2022/09/24 08:36:36;;;;;;;11.73;2.42;;;15.60;99.90;;;;;;4969577;28;20042;-65
2022/09/24 08:39:03;;;;;;;16.30;2.83;;;15.60;99.90;;;;;;4954936;28;20042;-65
2022/09/24 08:41:44;;;;;;;7.97;1.88;;;15.50;99.90;;;;;;4964650;28;20062;-65
2022/09/24 08:47:21;;;;;;;11.50;2.92;;;15.60;99.90;;;;;;4947840;28;20059;-64
2022/09/24 08:47:21;;;;;;;7.38;2.25;;;15.60;99.90;;;;;;4962372;28;20070;-65
2022/09/24 08:49:53;;;;;;;7.38;2.40;;;15.60;99.90;;;;;;4950406;28;20483;-64
2022/09/24 08:52:30;;;;;;;6.97;2.67;;;15.70;99.90;;;;;;4950287;28;20057;-65
2022/09/24 08:55:01;;;;;;;10.45;3.17;;;15.70;99.90;;;;;;4968896;28;20051;-64
2022/09/24 08:57:38;;;;;;;12.13;2.45;;;15.70;99.90;;;;;;4966818;28;20102;-64
2022/09/24 09:00:13;;;;;;;9.25;2.40;;;15.80;99.90;;;;;;4970674;28;20057;-65
2022/09/24 09:02:48;;;;;;;8.10;2.35;;;15.80;99.90;;;;;;4951344;28;20051;-64
2022/09/24 09:05:26;;;;;;;15.82;2.40;;;15.80;99.90;;;;;;4967549;28;20051;-64
2022/09/24 09:08:01;;;;;;;8.80;2.50;;;15.80;99.90;;;;;;4946203;29;20063;-64
2022/09/24 09:10:32;;;;;;;9.82;2.10;;;15.70;99.90;;;;;;4945814;28;20051;-64
2022/09/24 09:13:05;;;;;;;9.23;3.03;;;15.80;99.90;;;;;;4946761;29;20058;-64
2022/09/24 09:15:36;;;;;;;7.30;2.28;;;15.80;99.90;;;;;;4944250;29;20106;-65
2022/09/24 09:18:10;;;;;;;8.02;2.10;;;15.80;99.90;;;;;;4962820;28;20411;-66
2022/09/24 09:20:41;;;;;;;6.35;1.98;;;15.70;99.90;;;;;;4946647;28;20050;-65
2022/09/24 09:23:16;;;;;;;9.00;2.08;;;15.70;99.90;;;;;;4948494;28;20059;-65
2022/09/24 09:25:51;;;;;;;9.40;1.90;;;15.80;99.90;;;;;;4943813;29;20102;-65
2022/09/24 09:28:18;;;;;;;8.85;2.13;;;15.70;99.90;;;;;;4949712;29;20058;-65
2022/09/24 09:30:59;;;;;;;9.13;2.67;;;15.80;99.90;;;;;;4951639;29;20050;-65
2022/09/24 09:33:52;;;;;;;4.90;1.30;;;15.90;99.90;;;;;;4946304;29;20507;-65
2022/09/24 09:36:45;;;;;;;4.25;1.75;;;15.90;99.90;;;;;;4945019;29;20062;-65
2022/09/24 09:39:29;;;;;;;3.42;1.40;;;15.90;99.90;;;;;;4949547;29;20056;-65
2022/09/24 09:42:04;;;;;;;4.30;1.20;;;16.30;99.90;;;;;;4952658;28;20073;-65
2022/09/24 09:44:37;;;;;;;2.50;0.90;;;16.50;99.90;;;;;;4954250;29;20416;-65
2022/09/24 09:47:15;;;;;;;4.22;0.88;;;16.30;99.90;;;;;;4955292;28;20091;-65
2022/09/24 09:49:45;;;;;;;1.75;0.77;;;16.30;99.90;;;;;;4953343;28;20435;-64
2022/09/24 09:52:16;;;;;;;3.88;1.02;;;16.30;99.90;;;;;;4954516;29;20379;-64
2022/09/24 09:54:43;;;;;;;4.40;1.38;;;16.40;99.90;;;;;;4955191;28;20051;-64
2022/09/24 09:57:16;;;;;;;4.65;1.42;;;16.40;99.90;;;;;;4953795;29;20059;-65
2022/09/24 09:59:46;;;;;;;8.15;1.55;;;16.60;99.90;;;;;;4955285;28;20059;-65
2022/09/24 10:02:26;;;;;;;4.55;1.20;;;16.70;99.90;;;;;;4955279;28;20065;-65
2022/09/24 10:04:56;;;;;;;5.07;1.52;;;16.80;99.90;;;;;;4953539;29;20054;-65
2022/09/24 10:07:23;;;;;;;7.10;1.85;;;16.90;99.90;;;;;;4960407;28;20062;-65
2022/09/24 10:10:04;;;;;;;5.90;1.67;;;17.10;99.90;;;;;;4956423;28;20058;-64
2022/09/24 10:12:31;;;;;;;6.82;1.60;;;17.40;99.90;;;;;;4974698;28;20579;-65
2022/09/24 10:15:03;;;;;;;7.25;1.73;;;17.60;99.90;;;;;;4974221;28;20061;-64
2022/09/24 10:17:36;;;;;;;4.55;1.10;;;17.70;99.90;;;;;;4973752;28;20051;-66
2022/09/24 10:20:08;;;;;;;2.05;0.80;;;17.70;99.90;;;;;;4957329;28;20501;-65
2022/09/24 10:22:37;;;;;;;4.47;1.00;;;17.60;99.90;;;;;;4974426;28;20058;-64
2022/09/24 10:25:06;;;;;;;4.18;1.10;;;17.50;99.90;;;;;;4973907;28;20097;-65
2022/09/24 10:27:35;;;;;;;4.82;1.40;;;17.50;99.90;;;;;;4974377;28;20058;-65
2022/09/24 10:32:58;;;;;;;5.78;1.10;;;17.20;99.90;;;;;;4973950;28;20054;-65
2022/09/24 10:35:30;;;;;;;5.45;1.33;;;17.30;99.90;;;;;;4973165;28;20050;-65
2022/09/24 10:37:59;;;;;;;4.15;1.52;;;17.50;99.90;;;;;;4952929;28;20604;-65
2022/09/24 10:40:29;;;;;;;5.25;1.55;;;17.00;99.90;;;;;;4970094;28;20178;-65
2022/09/24 10:43:00;;;;;;;5.05;1.45;;;17.00;99.90;;;;;;4953552;28;20059;-65
2022/09/24 10:46:01;;;;;;;5.75;1.77;;;16.90;99.90;;;;;;4966116;28;20400;-65
2022/09/24 10:48:35;;;;;;;4.03;1.20;;;16.80;99.90;;;;;;4952364;28;20106;-65
2022/09/24 10:51:12;;;;;;;5.70;1.95;;;16.80;99.90;;;;;;4948123;28;20050;-65
2022/09/24 10:53:50;;;;;;;6.40;1.67;;;16.70;99.90;;;;;;4943312;28;20055;-65
2022/09/24 10:56:24;;;;;;;6.95;1.58;;;16.80;99.90;;;;;;4973272;28;20065;-65
2022/09/24 10:59:22;;;;;;;7.13;1.73;;;16.80;99.90;;;;;;4953757;28;20055;-66
2022/09/24 11:02:04;;;;;;;8.48;1.63;;;16.80;99.90;;;;;;4949388;28;20423;-65
2022/09/24 11:04:47;;;;;;;6.95;1.60;;;16.80;99.90;;;;;;4957423;28;20059;-64
2022/09/24 11:07:41;;;;;;;5.60;1.63;;;16.70;99.90;;;;;;4953354;28;20063;-65
2022/09/24 11:10:21;;;;;;;6.28;2.05;;;16.70;99.90;;;;;;4940281;28;20495;-66
2022/09/24 11:12:59;;;;;;;9.85;1.80;;;16.50;99.90;;;;;;4954871;28;20055;-65
2022/09/24 11:15:43;;;;;;;7.85;1.52;;;16.50;99.90;;;;;;4961113;28;20051;-66
2022/09/24 11:18:35;;;;;;;7.28;1.58;;;16.40;99.90;;;;;;4965489;28;20047;-66
2022/09/24 11:21:17;;;;;;;7.82;1.88;;;16.30;99.90;;;;;;4936015;29;20615;-66
2022/09/24 11:23:59;;;;;;;8.98;2.25;;;16.30;99.90;;;;;;4936467;28;20074;-65
2022/09/24 11:26:36;;;;;;;5.30;1.40;;;16.20;99.90;;;;;;4953249;28;20053;-67
2022/09/24 11:29:30;;;;;;;6.20;1.48;;;16.10;99.90;;;;;;4955986;28;20051;-64
2022/09/24 11:32:05;;;;;;;7.13;2.00;;;16.10;99.90;;;;;;4956595;28;20063;-64
2022/09/24 11:34:57;;;;;;;9.50;1.92;;;16.10;99.90;;;;;;4957239;28;20059;-64
2022/09/24 11:37:41;;;;;;;3.97;1.38;;;16.10;99.90;;;;;;4974237;28;20137;-65
2022/09/24 11:40:25;;;;;;;8.18;1.60;;;16.10;99.90;;;;;;4960123;28;20047;-64
2022/09/24 11:43:03;;;;;;;7.88;2.10;;;16.10;99.90;;;;;;4958245;28;20058;-65
2022/09/24 11:45:46;;;;;;;3.20;1.60;;;16.10;99.90;;;;;;4956924;28;20073;-63
2022/09/24 11:48:41;;;;;;;5.70;1.50;;;16.10;99.90;;;;;;4957243;28;20107;-65
2022/09/24 11:51:23;;;;;;;4.25;1.35;;;16.10;99.90;;;;;;4942217;28;20793;-63
2022/09/24 11:53:56;;;;;;;4.43;1.30;;;16.10;99.90;;;;;;4952153;28;20502;-62
2022/09/24 11:56:28;;;;;;;5.32;1.70;;;16.00;99.90;;;;;;4955742;28;20058;-62
2022/09/24 11:58:59;;;;;;;5.70;1.30;;;16.00;99.90;;;;;;4958383;28;20535;-63
2022/09/24 12:01:28;;;;;;;;;;;16.10;99.90;;;;;;4939504;28;20055;-63
2022/09/24 12:04:00;;;;;;;3.92;1.58;;;16.20;99.90;;;;;;4963084;28;19930;-63
2022/09/24 12:06:32;;;;;;;6.38;1.92;;;16.30;99.90;;;;;;4962171;28;20074;-62
2022/09/24 12:09:09;;;;;;;4.28;1.17;;;16.40;99.90;;;;;;4938973;28;20060;-63
2022/09/24 12:11:41;;;;;;;7.45;1.80;;;16.40;99.90;;;;;;4958986;28;20059;-64
2022/09/24 12:14:14;;;;;;;5.18;1.30;;;16.50;99.90;;;;;;4943503;28;20158;-64
2022/09/24 12:16:44;;;;;;;4.97;1.15;;;16.40;99.90;;;;;;4961772;28;20399;-64
2022/09/24 12:19:18;;;;;;;5.13;1.13;;;16.50;99.90;;;;;;4957940;28;20552;-63
2022/09/24 12:21:48;;;;;;;3.28;1.25;;;16.40;99.90;;;;;;4956545;28;20052;-63
2022/09/24 12:24:20;;;;;;;4.15;1.27;;;16.40;99.90;;;;;;4941997;29;20059;-64
2022/09/24 12:26:49;;;;;;;2.85;1.20;;;16.40;99.90;;;;;;4954594;28;20059;-64
2022/09/24 12:35:22;;;;;;;3.60;0.98;;;16.30;99.90;;;;;;4970002;28;20065;-64
2022/09/24 12:37:54;;;;;;;1.88;0.90;;;16.30;99.90;;;;;;4954861;28;20104;-64
2022/09/24 12:40:52;;;;;;;4.43;1.20;;;16.30;99.90;;;;;;4954603;28;20126;-63
2022/09/24 12:43:26;;;;;;;4.38;1.23;;;16.30;99.90;;;;;;4943818;29;20055;-63
2022/09/24 12:46:00;;;;;;;3.92;1.30;;;16.20;99.90;;;;;;4962488;28;20065;-63
2022/09/24 12:48:29;;;;;;;1.83;0.80;;;16.20;99.90;;;;;;4956103;28;20259;-63
2022/09/24 12:50:59;;;;;;;4.70;1.20;;;16.10;99.90;;;;;;4938202;28;20455;-64
2022/09/24 12:53:33;;;;;;;4.20;1.20;;;16.10;99.90;;;;;;4955045;28;20471;-64
2022/09/24 12:56:03;;;;;;;4.05;1.20;;;16.10;99.90;;;;;;4941807;29;20066;-63
2022/09/24 12:58:35;;;;;;;;;;;16.00;99.90;;;;;;4959979;28;20047;-63
2022/09/24 13:01:11;;;;;;;2.60;1.05;;;15.90;99.90;;;;;;4955785;28;19945;-64
2022/09/24 13:03:40;;;;;;;3.63;0.90;;;15.80;99.90;;;;;;4957053;28;20066;-64
2022/09/24 13:06:22;;;;;;;4.43;1.10;;;15.70;99.90;;;;;;4955148;28;20074;-62
2022/09/24 13:08:50;;;;;;;7.97;1.63;;;15.70;99.90;;;;;;4938492;29;20407;-62
2022/09/24 13:11:31;;;;;;;3.75;1.35;;;15.70;99.90;;;;;;4938018;28;20102;-63
2022/09/24 13:14:16;;;;;;;5.72;1.33;;;15.70;99.90;;;;;;4960111;28;20054;-64